Time;durP1;ratioP1;P1;durP2;ratioP2;P2;SDS_P1;SDS_P2;PMS_P1;PMS_P2;Temp;Humidity;BMP_temperature;BMP_pressure;BME280_temperature;BME280_humidity;BME280_pressure;Samples;Min_cycle;Max_cycle;Signal;HPM_P1;HPM_P2
2022/03/17 00:00:26;;;;;;;24.50;21.73;;;;;;;10.35;100.00;163270.56;5070944;28;20379;-63
2022/03/17 00:02:51;;;;;;;26.38;22.20;;;;;;;10.35;100.00;163269.25;5068079;28;20053;-63
2022/03/17 00:05:17;;;;;;;33.40;23.15;;;;;;;10.36;100.00;163273.25;5051296;28;20017;-63
2022/03/17 00:07:43;;;;;;;25.48;22.77;;;;;;;10.38;100.00;163278.72;5060809;28;20047;-63
2022/03/17 00:10:11;;;;;;;22.95;20.17;;;;;;;10.40;100.00;163284.09;5067930;28;20031;-63
2022/03/17 00:12:37;;;;;;;22.65;19.63;;;;;;;10.40;100.00;163282.78;5069154;28;20048;-63
2022/03/17 00:15:04;;;;;;;27.65;22.05;;;;;;;10.31;100.00;163259.78;5070772;28;20055;-63
2022/03/17 00:17:30;;;;;;;21.23;18.37;;;;;;;10.29;100.00;163254.38;5069101;28;20102;-63
2022/03/17 00:19:55;;;;;;;27.10;22.48;;;;;;;10.35;100.00;163270.56;5070811;28;20037;-63
2022/03/17 00:22:20;;;;;;;24.75;22.15;;;;;;;10.38;100.00;163278.72;5069288;28;20525;-63
2022/03/17 00:24:49;;;;;;;24.73;22.10;;;;;;;10.34;100.00;163267.84;5070479;28;20035;-63
2022/03/17 00:27:14;;;;;;;27.33;24.13;;;;;;;10.33;100.00;163265.16;5052552;28;20048;-62
2022/03/17 00:29:40;;;;;;;25.58;21.52;;;;;;;10.34;100.00;163267.84;5050956;28;20119;-63
2022/03/17 00:32:07;;;;;;;28.40;22.85;;;;;;;10.29;100.00;163255.72;5050311;28;20040;-63
2022/03/17 00:34:34;;;;;;;23.17;20.73;;;;;;;10.39;100.00;163281.38;5052008;28;20029;-63
2022/03/17 00:36:59;;;;;;;26.92;21.05;;;;;;;10.35;100.00;163270.56;5055329;28;20482;-63
2022/03/17 00:39:25;;;;;;;30.27;23.95;;;;;;;10.35;100.00;163269.25;5070444;28;20021;-63
2022/03/17 00:41:50;;;;;;;25.50;21.05;;;;;;;10.35;100.00;163270.56;5069578;28;20036;-63
2022/03/17 00:44:16;;;;;;;34.17;26.13;;;;;;;10.36;100.00;163271.91;5070673;28;20028;-63
2022/03/17 00:46:41;;;;;;;30.02;21.90;;;;;;;10.35;100.00;163269.25;5069167;28;20033;-63
2022/03/17 00:49:07;;;;;;;32.55;26.83;;;;;;;10.38;100.00;163278.72;5070697;28;20040;-63
2022/03/17 00:51:33;;;;;;;28.73;24.30;;;;;;;10.26;100.00;163246.25;5069367;28;20052;-63
2022/03/17 00:53:58;;;;;;;28.73;25.52;;;;;;;10.14;100.00;163216.59;5070676;28;20112;-63
2022/03/17 00:56:23;;;;;;;26.27;22.30;;;;;;;9.96;100.00;163168.00;5058132;28;20071;-62
2022/03/17 00:58:49;;;;;;;36.40;24.63;;;;;;;9.96;100.00;163168.00;5054613;28;20029;-62
2022/03/17 01:01:15;;;;;;;27.58;24.63;;;;;;;9.83;100.00;163135.63;5052746;28;20040;-62
2022/03/17 01:03:41;;;;;;;26.80;23.90;;;;;;;9.79;100.00;163124.81;5054868;28;20029;-62
2022/03/17 01:06:07;;;;;;;32.42;25.73;;;;;;;9.68;100.00;163095.16;5067427;28;20537;-62
2022/03/17 01:08:32;;;;;;;38.10;26.63;;;;;;;9.59;100.00;163072.25;5074313;28;20028;-63
2022/03/17 01:10:58;;;;;;;37.13;25.95;;;;;;;9.62;100.00;163078.97;5074595;28;20039;-63
2022/03/17 01:13:23;;;;;;;28.30;24.50;;;;;;;9.61;100.00;163077.59;5072787;28;20518;-62
2022/03/17 01:15:48;;;;;;;29.63;24.70;;;;;;;9.64;100.00;163084.38;5073917;28;20506;-63
2022/03/17 01:18:14;;;;;;;32.20;27.60;;;;;;;9.61;100.00;163077.59;5072784;28;20028;-63
2022/03/17 01:20:39;;;;;;;31.20;26.90;;;;;;;9.55;100.00;163060.09;5055305;28;20029;-62
2022/03/17 01:23:06;;;;;;;30.55;26.13;;;;;;;9.46;100.00;163038.50;5052434;28;20051;-62
2022/03/17 01:25:32;;;;;;;35.42;27.02;;;;;;;9.47;100.00;163041.22;5054284;28;20020;-62
2022/03/17 01:27:57;;;;;;;30.17;25.40;;;;;;;9.41;100.00;163025.03;5052558;28;20065;-62
2022/03/17 01:30:23;;;;;;;36.40;30.40;;;;;;;9.42;100.00;163027.69;5053587;28;20114;-62
2022/03/17 01:32:48;;;;;;;36.13;31.17;;;;;;;9.40;100.00;163022.31;5056541;28;20040;-63
2022/03/17 01:35:13;;;;;;;33.90;28.23;;;;;;;9.39;100.00;163018.25;5073986;28;20377;-62
2022/03/17 01:37:39;;;;;;;31.15;25.60;;;;;;;9.46;100.00;163038.50;5072224;28;20109;-62
2022/03/17 01:40:05;;;;;;;35.05;30.55;;;;;;;9.49;100.00;163046.56;5070967;28;20028;-63
2022/03/17 01:42:32;;;;;;;33.80;27.88;;;;;;;9.57;100.00;163065.50;5052458;28;20041;-63
2022/03/17 01:44:57;;;;;;;33.38;28.92;;;;;;;9.62;100.00;163078.97;5053835;28;20017;-63
2022/03/17 01:47:28;;;;;;;36.20;27.42;;;;;;;9.60;100.00;163074.94;5052164;28;20508;-64
2022/03/17 01:49:59;;;;;;;32.25;27.75;;;;;;;9.58;100.00;163068.16;5054167;28;20491;-64
2022/03/17 01:52:25;;;;;;;29.95;26.55;;;;;;;9.60;100.00;163073.56;5051663;28;20120;-63
2022/03/17 01:54:50;;;;;;;29.83;26.58;;;;;;;9.59;100.00;163070.84;5054057;28;20075;-63
2022/03/17 01:57:16;;;;;;;31.88;27.67;;;;;;;9.56;100.00;163062.78;5052076;28;20040;-63
2022/03/17 01:59:42;;;;;;;33.72;29.50;;;;;;;9.55;100.00;163060.09;5053175;28;20029;-62
2022/03/17 02:02:10;;;;;;;33.10;29.48;;;;;;;9.61;100.00;163076.28;5066212;28;20056;-62
2022/03/17 02:04:36;;;;;;;;;;;;;;;9.66;100.00;163089.75;5055299;28;20353;-62
2022/03/17 02:07:05;;;;;;;38.20;31.08;;;;;;;9.69;100.00;163097.84;5050914;28;20008;-62
2022/03/17 02:09:31;;;;;;;;;;;;;;;9.66;100.00;163089.75;5053705;28;20029;-61
2022/03/17 02:14:54;;;;;;;31.17;26.45;;;;;;;9.67;100.00;163092.44;5053142;28;20040;-61
2022/03/17 02:17:21;;;;;;;33.55;28.75;;;;;;;9.79;100.00;163124.81;5051610;28;20137;-61
2022/03/17 02:19:47;;;;;;;32.72;28.48;;;;;;;9.82;100.00;163132.94;5053193;28;20126;-61
2022/03/17 02:22:15;;;;;;;32.00;28.17;;;;;;;9.87;100.00;163143.69;5051372;28;20041;-61
2022/03/17 02:27:38;;;;;;;35.17;30.08;;;;;;;9.99;100.00;163177.44;5071605;28;20067;-61
2022/03/17 02:30:05;;;;;;;32.17;28.50;;;;;;;9.99;100.00;163177.44;5058651;28;20032;-61
2022/03/17 02:32:30;;;;;;;32.08;26.70;;;;;;;10.11;100.00;163208.47;5051776;28;20045;-61
2022/03/17 02:34:56;;;;;;;33.75;28.50;;;;;;;10.16;100.00;163220.63;5053167;28;20028;-62
2022/03/17 02:37:21;;;;;;;31.65;28.25;;;;;;;10.25;100.00;163243.56;5051013;28;20407;-62
2022/03/17 02:39:46;;;;;;;31.40;27.95;;;;;;;10.36;100.00;163271.91;5052940;28;20025;-62
2022/03/17 02:42:12;;;;;;;38.83;31.65;;;;;;;10.38;100.00;163278.72;5051185;28;20036;-62
2022/03/17 02:44:38;;;;;;;33.25;29.75;;;;;;;10.40;100.00;163284.09;5052493;28;20040;-62
2022/03/17 02:47:05;;;;;;;32.58;28.73;;;;;;;10.38;100.00;163278.72;5052408;28;20128;-62
2022/03/17 02:49:30;;;;;;;33.47;29.77;;;;;;;10.29;100.00;163254.38;5072619;28;20024;-63
2022/03/17 02:51:56;;;;;;;33.20;29.35;;;;;;;10.30;100.00;163258.41;5070985;28;20090;-63
2022/03/17 02:54:21;;;;;;;39.58;30.15;;;;;;;10.30;100.00;163257.09;5072480;28;20028;-63
2022/03/17 02:56:47;;;;;;;36.08;31.33;;;;;;;10.32;100.00;163262.44;5067597;28;20392;-63
2022/03/17 02:59:12;;;;;;;36.25;30.25;;;;;;;10.33;100.00;163265.16;5052074;28;20079;-63
2022/03/17 03:01:37;;;;;;;34.72;29.88;;;;;;;10.27;100.00;163248.97;5052045;28;20044;-62
2022/03/17 03:04:03;;;;;;;30.85;27.52;;;;;;;10.34;100.00;163266.53;5052367;28;20036;-62
2022/03/17 03:06:28;;;;;;;35.72;28.25;;;;;;;10.36;100.00;163273.25;5050650;28;20040;-62
2022/03/17 03:08:54;;;;;;;31.13;27.83;;;;;;;10.33;100.00;163265.16;5051863;28;20485;-62
2022/03/17 03:11:19;;;;;;;38.33;29.80;;;;;;;10.29;100.00;163255.72;5051253;28;20032;-62
2022/03/17 03:13:44;;;;;;;34.22;30.38;;;;;;;10.26;100.00;163246.25;5062081;28;20021;-62
2022/03/17 03:16:11;;;;;;;34.85;29.35;;;;;;;10.24;100.00;163240.91;5060302;28;20476;-62
2022/03/17 03:18:37;;;;;;;32.25;27.95;;;;;;;10.22;100.00;163235.47;5060540;28;20021;-64
2022/03/17 03:21:02;;;;;;;33.65;29.98;;;;;;;10.16;100.00;163221.94;5061895;28;20347;-63
2022/03/17 03:23:27;;;;;;;40.58;31.40;;;;;;;10.13;100.00;163213.88;5060117;28;20041;-63
2022/03/17 03:25:53;;;;;;;34.47;30.77;;;;;;;10.15;100.00;163217.91;5061687;28;20089;-63
2022/03/17 03:28:18;;;;;;;33.72;30.02;;;;;;;10.12;100.00;163211.19;5060714;28;20049;-63
2022/03/17 03:30:44;;;;;;;34.15;30.55;;;;;;;10.15;100.00;163219.28;5061938;28;20028;-63
2022/03/17 03:33:09;;;;;;;39.03;29.05;;;;;;;10.22;100.00;163235.47;5059841;28;20106;-63
2022/03/17 03:38:19;;;;;;;35.88;29.95;;;;;;;10.35;100.00;163270.56;5055152;28;20048;-63
2022/03/17 03:40:45;;;;;;;38.40;29.95;;;;;;;10.32;100.00;163262.44;5059941;28;20028;-63
2022/03/17 03:43:11;;;;;;;32.05;28.17;;;;;;;10.35;100.00;163270.56;5057999;28;20040;-63
2022/03/17 03:45:37;;;;;;;34.97;28.92;;;;;;;10.38;100.00;163277.34;5062226;28;20032;-64
2022/03/17 03:48:02;;;;;;;39.42;30.88;;;;;;;10.46;100.00;163300.28;5059884;28;20036;-64
2022/03/17 03:50:28;;;;;;;37.90;30.67;;;;;;;10.53;100.00;163316.53;5062302;28;20025;-64
2022/03/17 03:52:53;;;;;;;41.55;32.05;;;;;;;10.50;100.00;163308.41;5060937;28;20439;-64
2022/03/17 03:55:19;;;;;;;37.35;31.75;;;;;;;10.51;100.00;163312.44;5059577;28;20071;-64
2022/03/17 03:57:46;;;;;;;36.67;31.05;;;;;;;10.53;100.00;163317.84;5057179;28;20115;-64
2022/03/17 04:00:33;;;;;;;41.30;32.33;;;;;;;10.45;100.00;163297.63;5050797;28;20107;-64
2022/03/17 04:02:58;;;;;;;38.15;32.58;;;;;;;10.44;100.00;163293.53;5049751;28;20580;-64
2022/03/17 04:05:28;;;;;;;38.05;31.90;;;;;;;10.40;100.00;163282.78;5051003;28;20074;-63
2022/03/17 04:07:57;;;;;;;39.75;32.67;;;;;;;10.44;100.00;163294.91;5055128;28;20129;-63
2022/03/17 04:10:25;;;;;;;41.15;29.13;;;;;;;10.47;100.00;163303.00;5071265;28;20032;-63
2022/03/17 04:12:51;;;;;;;;;;;;;;;10.45;100.00;163296.25;5070028;28;20488;-63
2022/03/17 04:15:16;;;;;;;37.78;32.38;;;;;;;10.39;100.00;163280.06;5071157;28;19995;-63
2022/03/17 04:17:42;;;;;;;46.40;36.25;;;;;;;10.48;100.00;163305.69;5069688;28;20036;-63
2022/03/17 04:20:09;;;;;;;37.78;32.03;;;;;;;10.53;100.00;163316.53;5070890;28;20468;-63
2022/03/17 04:22:34;;;;;;;50.25;35.85;;;;;;;10.52;100.00;163315.13;5069465;28;20051;-63
2022/03/17 04:24:59;;;;;;;44.08;32.90;;;;;;;10.54;100.00;163319.19;5071033;28;20021;-62
2022/03/17 04:27:25;;;;;;;43.63;35.15;;;;;;;10.52;100.00;163313.81;5069411;28;20037;-63
2022/03/17 04:29:50;;;;;;;41.28;36.08;;;;;;;10.48;100.00;163305.69;5070823;28;20035;-62
2022/03/17 04:32:16;;;;;;;43.17;36.22;;;;;;;10.43;100.00;163292.22;5069029;28;20051;-62
2022/03/17 04:34:42;;;;;;;43.50;34.65;;;;;;;10.41;100.00;163286.81;5071429;28;20464;-62
2022/03/17 04:37:07;;;;;;;47.45;32.67;;;;;;;10.35;100.00;163270.56;5049022;28;20040;-63
2022/03/17 04:39:32;;;;;;;50.15;38.72;;;;;;;10.28;100.00;163253.00;5050910;28;20048;-63
2022/03/17 04:41:58;;;;;;;49.50;37.25;;;;;;;10.19;100.00;163227.38;5050020;28;20037;-63
2022/03/17 04:44:24;;;;;;;49.78;37.88;;;;;;;10.08;100.00;163200.41;5050480;28;20542;-63
2022/03/17 04:46:50;;;;;;;46.78;37.40;;;;;;;10.07;100.00;163197.69;5049376;28;20546;-63
2022/03/17 04:49:15;;;;;;;45.88;37.65;;;;;;;10.08;100.00;163199.03;5051743;28;20025;-63
2022/03/17 04:51:40;;;;;;;45.13;35.58;;;;;;;10.05;100.00;163190.97;5049245;28;20044;-63
2022/03/17 04:54:06;;;;;;;48.90;36.85;;;;;;;10.00;100.00;163178.81;5050701;28;20388;-63
2022/03/17 04:56:31;;;;;;;48.92;40.38;;;;;;;9.93;100.00;163159.94;5049426;28;20032;-63
2022/03/17 04:58:57;;;;;;;49.13;38.75;;;;;;;9.83;100.00;163134.25;5050559;28;20051;-63
2022/03/17 05:01:23;;;;;;;52.00;43.03;;;;;;;9.76;100.00;163115.38;5048998;28;20053;-63
2022/03/17 05:03:49;;;;;;;53.90;43.25;;;;;;;9.60;100.00;163073.56;5052228;28;20107;-63
2022/03/17 05:06:15;;;;;;;58.92;42.17;;;;;;;9.59;100.00;163072.25;5048562;28;20028;-63
2022/03/17 05:08:41;;;;;;;52.90;41.50;;;;;;;9.51;100.00;163051.97;5050662;28;20067;-63
2022/03/17 05:11:07;;;;;;;55.25;42.92;;;;;;;9.41;100.00;163025.03;5047708;28;20029;-57
2022/03/17 05:13:33;;;;;;;54.78;43.25;;;;;;;9.24;100.00;162979.16;5051249;28;20020;-58
2022/03/17 05:15:59;;;;;;;58.33;44.25;;;;;;;9.19;100.00;162968.38;5051330;28;20035;-62
2022/03/17 05:18:25;;;;;;;61.78;43.33;;;;;;;9.15;100.00;162956.25;5048550;28;20029;-58
2022/03/17 05:20:50;;;;;;;67.45;45.97;;;;;;;9.06;100.00;162933.28;5049561;28;20369;-58
2022/03/17 05:23:17;;;;;;;70.95;49.63;;;;;;;9.04;100.00;162927.94;5048483;28;20369;-58
2022/03/17 05:25:45;;;;;;;82.45;50.90;;;;;;;8.99;100.00;162914.41;5049841;28;20052;-58
2022/03/17 05:28:11;;;;;;;68.47;49.85;;;;;;;8.95;100.00;162904.97;5056666;28;20044;-58
2022/03/17 05:30:38;;;;;;;71.72;48.70;;;;;;;8.95;100.00;162903.66;5059795;28;20054;-58
2022/03/17 05:33:04;;;;;;;67.70;48.28;;;;;;;8.95;100.00;162903.66;5061414;28;20142;-58
2022/03/17 05:35:30;;;;;;;75.18;49.13;;;;;;;8.88;100.00;162887.47;5062271;28;20039;-58
2022/03/17 05:37:56;;;;;;;60.80;46.17;;;;;;;8.87;100.00;162884.78;5065458;28;20095;-58
2022/03/17 05:40:23;;;;;;;75.90;49.25;;;;;;;8.85;100.00;162879.38;5058568;28;20112;-58
2022/03/17 05:42:54;;;;;;;66.50;44.22;;;;;;;8.69;100.00;162837.59;5060941;28;20033;-58
2022/03/17 05:45:21;;;;;;;63.33;43.90;;;;;;;8.60;100.00;162811.97;5064356;28;20024;-58
2022/03/17 05:47:49;;;;;;;47.72;37.80;;;;;;;8.42;100.00;162766.09;5060666;28;20041;-58
2022/03/17 05:50:16;;;;;;;23.10;20.63;;;;;;;7.97;100.00;162648.81;5062643;28;20028;-58
2022/03/17 05:52:43;;;;;;;19.05;17.02;;;;;;;7.77;100.00;162597.63;5061470;28;20483;-58
2022/03/17 05:55:10;;;;;;;15.30;13.90;;;;;;;7.55;100.00;162539.72;5053692;28;20435;-58
2022/03/17 05:57:36;;;;;;;17.40;14.77;;;;;;;7.43;100.00;162507.34;5052070;28;20037;-58
2022/03/17 06:00:04;;;;;;;16.08;14.48;;;;;;;7.29;100.00;162472.34;5053469;28;20051;-58
2022/03/17 06:02:30;;;;;;;13.32;12.00;;;;;;;7.27;100.00;162466.94;5057927;28;20040;-58
2022/03/17 06:04:55;;;;;;;17.92;16.02;;;;;;;7.22;100.00;162452.16;5063062;28;20020;-58
2022/03/17 06:07:21;;;;;;;20.70;18.58;;;;;;;7.20;100.00;162448.06;5061716;28;20044;-59
2022/03/17 06:09:46;;;;;;;20.13;18.13;;;;;;;7.18;100.00;162441.34;5062310;28;20020;-58
2022/03/17 06:12:11;;;;;;;20.92;18.88;;;;;;;7.14;100.00;162431.94;5061923;28;20036;-58
2022/03/17 06:14:37;;;;;;;24.50;20.30;;;;;;;7.14;100.00;162431.94;5062923;28;20047;-58
2022/03/17 06:17:04;;;;;;;22.92;20.55;;;;;;;7.14;100.00;162433.31;5063089;28;20047;-58
2022/03/17 06:19:29;;;;;;;24.00;21.02;;;;;;;7.10;100.00;162422.50;5070236;28;20036;-58
2022/03/17 06:21:54;;;;;;;24.13;21.30;;;;;;;7.11;100.00;162425.19;5062049;28;20376;-58
2022/03/17 06:24:20;;;;;;;25.73;22.45;;;;;;;7.08;100.00;162415.78;5062881;28;20044;-58
2022/03/17 06:26:45;;;;;;;23.80;21.27;;;;;;;7.09;100.00;162418.47;5060019;28;20041;-58
2022/03/17 06:29:10;;;;;;;25.80;22.42;;;;;;;7.07;100.00;162413.06;5063487;28;20028;-58
2022/03/17 06:31:39;;;;;;;30.67;23.52;;;;;;;7.09;100.00;162418.47;5060851;28;20400;-58
2022/03/17 06:34:05;;;;;;;30.17;25.27;;;;;;;7.08;100.00;162415.78;5060019;28;20075;-58
2022/03/17 06:36:30;;;;;;;32.53;27.27;;;;;;;7.08;100.00;162417.09;5060157;28;20499;-58
2022/03/17 06:38:55;;;;;;;33.35;29.77;;;;;;;7.09;100.00;162418.47;5062878;28;20384;-58
2022/03/17 06:41:21;;;;;;;34.78;29.02;;;;;;;7.08;100.00;162415.78;5058391;28;20024;-58
2022/03/17 06:43:46;;;;;;;34.50;30.83;;;;;;;7.10;100.00;162422.50;5060395;28;20016;-58
2022/03/17 06:46:11;;;;;;;34.28;29.13;;;;;;;7.11;100.00;162423.88;5059694;28;20029;-58
2022/03/17 06:48:37;;;;;;;32.28;28.38;;;;;;;7.08;100.00;162415.78;5061907;28;20032;-58
2022/03/17 06:51:02;;;;;;;31.23;27.75;;;;;;;7.06;100.00;162410.38;5062714;28;20482;-58
2022/03/17 06:53:28;;;;;;;33.60;27.73;;;;;;;7.05;100.00;162407.66;5059293;28;20044;-59
2022/03/17 06:55:53;;;;;;;27.95;24.92;;;;;;;7.07;100.00;162413.06;5062650;28;20032;-58
2022/03/17 06:58:18;;;;;;;32.63;24.00;;;;;;;7.06;100.00;162411.75;5060456;28;20555;-58
2022/03/17 07:00:44;;;;;;;27.23;23.95;;;;;;;7.04;100.00;162404.97;5061104;28;20054;-58
2022/03/17 07:03:09;;;;;;;26.17;23.40;;;;;;;7.01;100.00;162396.91;5061020;28;20037;-58
2022/03/17 07:05:34;;;;;;;22.58;17.25;;;;;;;6.81;100.00;162347.09;5061635;28;20350;-59
2022/03/17 07:08:00;;;;;;;20.00;17.70;;;;;;;6.93;100.00;162378.06;5060214;28;20047;-58
2022/03/17 07:10:27;;;;;;;24.48;15.50;;;;;;;6.91;100.00;162371.34;5062529;28;20056;-58
2022/03/17 07:12:53;;;;;;;21.42;15.07;;;;;;;6.86;100.00;162359.22;5059508;28;20032;-58
2022/03/17 07:15:19;;;;;;;12.10;10.80;;;;;;;6.80;100.00;162344.41;5061676;28;20020;-58
2022/03/17 07:17:45;;;;;;;21.88;11.13;;;;;;;6.80;100.00;162343.06;5060914;28;20548;-58
2022/03/17 07:20:15;;;;;;;12.95;7.47;;;;;;;6.79;100.00;162340.38;5060286;28;20017;-58
2022/03/17 07:22:42;;;;;;;15.35;7.30;;;;;;;6.80;100.00;162343.06;5060082;28;20036;-58
2022/03/17 07:25:09;;;;;;;7.75;6.97;;;;;;;6.77;100.00;162334.97;5065869;28;20020;-58
2022/03/17 07:27:46;;;;;;;14.90;6.18;;;;;;;6.79;100.00;162340.38;5070234;28;20040;-58
2022/03/17 07:30:20;;;;;;;18.50;7.93;;;;;;;6.80;100.00;162343.06;5071660;28;20025;-58
2022/03/17 07:32:48;;;;;;;16.75;4.82;;;;;;;6.81;100.00;162345.78;5068654;28;20132;-58
2022/03/17 07:35:14;;;;;;;7.97;5.43;;;;;;;6.84;100.00;162353.81;5070032;28;20376;-58
2022/03/17 07:37:40;;;;;;;9.88;4.93;;;;;;;6.90;100.00;162368.66;5070217;28;20046;-58
2022/03/17 07:40:06;;;;;;;8.73;4.78;;;;;;;6.97;100.00;162388.81;5071457;28;20020;-58
2022/03/17 07:42:31;;;;;;;16.25;8.20;;;;;;;7.02;100.00;162399.63;5070074;28;20032;-58
2022/03/17 07:44:57;;;;;;;7.97;4.43;;;;;;;7.04;100.00;162404.97;5071609;28;20028;-58
2022/03/17 07:47:22;;;;;;;9.55;6.25;;;;;;;7.02;100.00;162399.63;5069515;28;20044;-58
2022/03/17 07:49:47;;;;;;;13.10;5.95;;;;;;;7.05;100.00;162407.66;5071352;28;20024;-58
2022/03/17 07:52:13;;;;;;;12.40;6.38;;;;;;;7.01;100.00;162396.91;5069793;28;20102;-58
2022/03/17 07:54:39;;;;;;;16.45;5.35;;;;;;;6.97;100.00;162388.81;5071544;28;20051;-58
2022/03/17 07:57:04;;;;;;;22.80;8.00;;;;;;;6.97;100.00;162388.81;5069452;28;20441;-58
2022/03/17 07:59:32;;;;;;;10.52;6.45;;;;;;;6.99;100.00;162394.22;5071446;28;20035;-58
2022/03/17 08:01:58;;;;;;;10.67;4.40;;;;;;;7.04;100.00;162404.97;5069953;28;20044;-58
2022/03/17 08:04:23;;;;;;;9.80;5.22;;;;;;;7.03;100.00;162402.31;5070908;28;20039;-58
2022/03/17 08:06:53;;;;;;;12.45;5.50;;;;;;;6.95;100.00;162383.47;5068785;28;20135;-58
2022/03/17 08:09:19;;;;;;;19.63;6.38;;;;;;;6.95;100.00;162382.09;5071196;28;20029;-58
2022/03/17 08:11:48;;;;;;;16.17;5.50;;;;;;;6.96;100.00;162386.13;5069599;28;20109;-58
2022/03/17 08:14:14;;;;;;;15.68;5.80;;;;;;;6.99;100.00;162394.22;5070893;28;20016;-58
2022/03/17 08:16:39;;;;;;;7.47;5.20;;;;;;;7.04;100.00;162404.97;5069566;28;20496;-58
2022/03/17 08:19:07;;;;;;;9.95;4.45;;;;;;;7.04;100.00;162404.97;5070831;28;20025;-58
2022/03/17 08:21:32;;;;;;;12.57;4.20;;;;;;;6.99;100.00;162394.22;5070297;28;20090;-58
2022/03/17 08:23:57;;;;;;;10.02;4.40;;;;;;;6.96;100.00;162386.13;5071303;28;20028;-58
2022/03/17 08:26:22;;;;;;;10.68;4.90;;;;;;;6.92;100.00;162375.38;5069082;28;20020;-58
2022/03/17 08:28:48;;;;;;;16.92;6.45;;;;;;;6.88;100.00;162364.63;5070695;28;20021;-58
2022/03/17 08:31:14;;;;;;;19.23;5.28;;;;;;;6.83;100.00;162351.13;5069382;28;20021;-58
2022/03/17 08:33:39;;;;;;;19.63;3.55;;;;;;;6.81;100.00;162345.78;5057973;28;20031;-58
2022/03/17 08:36:05;;;;;;;17.35;3.38;;;;;;;6.80;100.00;162343.06;5060688;28;20373;-58
2022/03/17 08:38:31;;;;;;;24.63;5.03;;;;;;;6.88;100.00;162364.63;5058176;28;20044;-58
2022/03/17 08:40:56;;;;;;;14.00;3.75;;;;;;;6.96;100.00;162384.78;5059341;28;20021;-58
2022/03/17 08:43:22;;;;;;;7.75;2.85;;;;;;;7.05;100.00;162407.66;5059610;28;20411;-58
2022/03/17 08:51:16;;;;;;;11.48;5.15;;;;;;;7.25;100.00;162461.59;5066498;28;20044;-58
2022/03/17 08:53:42;;;;;;;34.30;11.23;;;;;;;7.30;100.00;162473.66;5060639;28;20023;-58
2022/03/17 08:56:07;;;;;;;13.63;3.53;;;;;;;7.25;100.00;162461.59;5048047;28;20454;-58
2022/03/17 08:58:34;;;;;;;9.13;3.17;;;;;;;7.18;100.00;162442.72;5033980;28;20013;-58
2022/03/17 09:01:00;;;;;;;9.27;2.67;;;;;;;7.09;100.00;162418.47;5050642;28;20612;-58
2022/03/17 09:03:26;;;;;;;16.90;4.63;;;;;;;7.02;100.00;162400.94;5066245;28;20044;-58
2022/03/17 09:05:52;;;;;;;16.27;5.13;;;;;;;7.04;100.00;162404.97;5070842;28;20028;-58
2022/03/17 09:08:17;;;;;;;11.57;3.95;;;;;;;7.01;100.00;162396.91;5068864;28;20393;-58
2022/03/17 09:10:42;;;;;;;11.68;4.30;;;;;;;7.05;100.00;162409.03;5069929;28;20036;-58
2022/03/17 09:13:09;;;;;;;10.52;3.15;;;;;;;7.18;100.00;162442.72;5068771;28;20522;-58
2022/03/17 09:15:36;;;;;;;17.40;4.88;;;;;;;7.37;100.00;162491.19;5070611;28;20021;-58
2022/03/17 09:18:02;;;;;;;23.20;3.35;;;;;;;7.34;100.00;162484.47;5070161;28;20466;-58
2022/03/17 09:20:28;;;;;;;10.32;3.80;;;;;;;7.32;100.00;162477.75;5074366;28;20024;-58
2022/03/17 09:22:55;;;;;;;8.10;3.65;;;;;;;7.34;100.00;162483.09;5073062;28;20121;-58
2022/03/17 09:25:28;;;;;;;15.75;3.90;;;;;;;7.36;100.00;162488.50;5074012;28;20032;-59
2022/03/17 09:27:54;;;;;;;14.85;4.32;;;;;;;7.33;100.00;162480.44;5072646;28;20055;-62
2022/03/17 09:30:19;;;;;;;13.50;4.80;;;;;;;7.32;100.00;162477.75;5073922;28;20183;-59
2022/03/17 09:32:45;;;;;;;13.77;4.50;;;;;;;7.31;100.00;162476.38;5072555;28;20041;-58
2022/03/17 09:35:11;;;;;;;5.53;2.80;;;;;;;7.39;100.00;162497.91;5073880;28;20479;-59
2022/03/17 09:37:37;;;;;;;12.65;3.50;;;;;;;7.60;100.00;162553.16;5072715;28;20040;-58
2022/03/17 09:40:03;;;;;;;15.80;3.15;;;;;;;7.87;100.00;162623.22;5052737;28;20556;-58
2022/03/17 09:42:29;;;;;;;16.67;6.03;;;;;;;8.09;100.00;162679.81;5053888;28;20037;-59
2022/03/17 09:44:54;;;;;;;10.02;4.43;;;;;;;8.34;100.00;162744.50;5060668;28;20024;-58
2022/03/17 09:47:24;;;;;;;15.75;4.05;;;;;;;8.46;100.00;162775.50;5061775;28;20043;-58
2022/03/17 09:49:54;;;;;;;15.50;3.47;;;;;;;8.60;100.00;162811.97;5091415;28;20035;-58
2022/03/17 09:52:20;;;;;;;15.07;3.63;;;;;;;8.76;100.00;162855.09;5087833;28;20074;-59
2022/03/17 09:54:47;;;;;;;9.15;3.97;;;;;;;8.96;100.00;162906.34;5069393;28;20024;-58
2022/03/17 09:57:16;;;;;;;7.47;4.38;;;;;;;9.20;100.00;162969.72;5069754;28;20406;-58
2022/03/17 09:59:45;;;;;;;5.38;2.28;;;;;;;9.03;100.00;162925.22;5065283;28;20028;-58
2022/03/17 10:02:16;;;;;;;8.45;2.90;;;;;;;9.00;100.00;162918.50;5055139;28;20128;-59
2022/03/17 10:04:44;;;;;;;21.13;3.83;;;;;;;8.78;100.00;162860.50;5053648;28;20031;-59
2022/03/17 10:07:14;;;;;;;11.33;4.00;;;;;;;8.40;100.00;162760.69;5052247;28;20053;-58
2022/03/17 10:09:39;;;;;;;13.35;2.90;;;;;;;8.44;100.00;162771.50;5063458;28;20032;-58
2022/03/17 10:12:10;;;;;;;9.43;2.95;;;;;;;8.28;100.00;162728.34;5062652;28;20407;-59
2022/03/17 10:14:43;;;;;;;11.68;3.47;;;;;;;8.08;100.00;162678.47;5075893;28;20221;-58
2022/03/17 10:17:33;;;;;;;16.30;3.60;;;;;;;8.01;100.00;162659.63;5073772;28;20040;-58
2022/03/17 10:20:11;;;;;;;19.25;4.47;;;;;;;7.98;100.00;162650.19;5065438;28;20028;-58
2022/03/17 10:22:45;;;;;;;13.65;3.60;;;;;;;8.01;100.00;162658.22;5064937;28;20099;-59
2022/03/17 10:25:29;;;;;;;14.88;3.58;;;;;;;8.10;100.00;162682.50;5056164;28;20102;-58
2022/03/17 10:27:55;;;;;;;8.23;2.70;;;;;;;8.21;100.00;162712.19;5063678;28;20037;-58
2022/03/17 10:30:40;;;;;;;14.57;5.30;;;;;;;8.19;100.00;162706.78;5062833;28;20036;-59
2022/03/17 10:33:15;;;;;;;11.85;5.38;;;;;;;8.24;100.00;162720.25;5054743;28;20041;-58
2022/03/17 10:35:46;;;;;;;23.48;4.47;;;;;;;8.16;100.00;162697.34;5067703;28;20028;-58
2022/03/17 10:38:14;;;;;;;11.05;6.13;;;;;;;8.11;100.00;162685.19;5060572;28;20046;-58
2022/03/17 10:40:41;;;;;;;12.90;4.13;;;;;;;8.13;100.00;162690.63;5059210;28;20099;-58
2022/03/17 10:43:23;;;;;;;9.52;3.10;;;;;;;8.08;100.00;162677.09;5067580;28;20044;-59
2022/03/17 10:46:07;;;;;;;16.05;2.72;;;;;;;8.05;100.00;162669.03;5058960;28;20020;-59
2022/03/17 10:48:32;;;;;;;7.45;2.95;;;;;;;8.20;100.00;162709.47;5058432;28;20044;-58
2022/03/17 10:50:58;;;;;;;12.48;3.00;;;;;;;8.21;100.00;162710.81;5068715;28;20032;-58
2022/03/17 10:53:28;;;;;;;14.38;4.15;;;;;;;8.23;100.00;162717.53;5053788;28;20028;-58
2022/03/17 10:56:09;;;;;;;11.02;4.40;;;;;;;8.47;100.00;162779.59;5065023;28;20029;-58
2022/03/17 10:58:41;;;;;;;16.60;4.75;;;;;;;8.71;100.00;162841.63;5063954;28;20123;-58
2022/03/17 11:01:07;;;;;;;19.77;4.95;;;;;;;8.81;100.00;162868.59;5055123;28;20135;-58
2022/03/17 11:03:32;;;;;;;13.02;3.35;;;;;;;8.94;100.00;162900.94;5066523;28;20037;-58
2022/03/17 11:05:58;;;;;;;11.30;2.60;;;;;;;8.82;100.00;162869.94;5052671;28;20024;-58
2022/03/17 11:08:25;;;;;;;14.30;3.33;;;;;;;8.86;100.00;162882.06;5068094;28;20046;-58
2022/03/17 11:10:51;;;;;;;7.03;3.65;;;;;;;9.14;100.00;162953.53;5072405;28;20020;-58
2022/03/17 11:13:17;;;;;;;6.15;2.85;;;;;;;8.99;100.00;162914.41;5070278;28;20522;-58
2022/03/17 11:15:45;;;;;;;21.95;4.13;;;;;;;8.98;100.00;162911.72;5071335;28;20112;-58
2022/03/17 11:18:13;;;;;;;;;;;;;;;8.87;100.00;162884.78;5069985;28;20491;-58
2022/03/17 11:20:38;;;;;;;7.80;2.40;;;;;;;9.04;100.00;162927.94;5054107;28;19916;-58
2022/03/17 11:23:11;;;;;;;11.60;3.60;;;;;;;9.09;100.00;162941.41;5061836;28;20041;-58